sensor_id;sensor_type;location;lat;lon;timestamp;pressure;altitude;pressure_sealevel;temperature;humidity
21828;BME280;11076;47.942;11.804;2023-06-22T00:01:28;94431.94;;;19.39;97.65
21828;BME280;11076;47.942;11.804;2023-06-22T00:06:31;94439.53;;;19.47;98.03
21828;BME280;11076;47.942;11.804;2023-06-22T00:11:33;94439.81;;;19.40;100.00
21828;BME280;11076;47.942;11.804;2023-06-22T00:16:36;94433.06;;;19.38;100.00
21828;BME280;11076;47.942;11.804;2023-06-22T00:21:39;94424.34;;;19.41;100.00
21828;BME280;11076;47.942;11.804;2023-06-22T00:26:41;94422.19;;;19.43;100.00
21828;BME280;11076;47.942;11.804;2023-06-22T00:31:44;94428.97;;;19.51;100.00
21828;BME280;11076;47.942;11.804;2023-06-22T00:36:47;94434.63;;;19.59;100.00
21828;BME280;11076;47.942;11.804;2023-06-22T00:41:49;94423.25;;;19.62;100.00
21828;BME280;11076;47.942;11.804;2023-06-22T00:46:54;94412.66;;;19.76;100.00
21828;BME280;11076;47.942;11.804;2023-06-22T00:51:57;94414.56;;;19.55;100.00
21828;BME280;11076;47.942;11.804;2023-06-22T00:57:02;94408.09;;;19.41;100.00
21828;BME280;11076;47.942;11.804;2023-06-22T01:02:05;94418.38;;;19.34;100.00
21828;BME280;11076;47.942;11.804;2023-06-22T01:07:21;94415.72;;;19.18;100.00
21828;BME280;11076;47.942;11.804;2023-06-22T01:12:30;94416.50;;;19.14;100.00
21828;BME280;11076;47.942;11.804;2023-06-22T01:17:35;94407.59;;;18.82;100.00
21828;BME280;11076;47.942;11.804;2023-06-22T01:22:58;94409.69;;;18.70;100.00
21828;BME280;11076;47.942;11.804;2023-06-22T01:28:30;94403.16;;;18.56;100.00
21828;BME280;11076;47.942;11.804;2023-06-22T01:33:34;94401.53;;;18.44;100.00
21828;BME280;11076;47.942;11.804;2023-06-22T01:38:37;94384.50;;;18.54;100.00
21828;BME280;11076;47.942;11.804;2023-06-22T01:43:41;94372.59;;;18.55;100.00
21828;BME280;11076;47.942;11.804;2023-06-22T01:48:44;94366.59;;;18.22;100.00
21828;BME280;11076;47.942;11.804;2023-06-22T01:53:47;94369.53;;;18.11;100.00
21828;BME280;11076;47.942;11.804;2023-06-22T01:59:00;94357.63;;;18.22;100.00
21828;BME280;11076;47.942;11.804;2023-06-22T02:04:11;94356.53;;;18.07;100.00
21828;BME280;11076;47.942;11.804;2023-06-22T02:09:17;94352.75;;;18.14;100.00
21828;BME280;11076;47.942;11.804;2023-06-22T02:14:21;94351.94;;;18.18;100.00
21828;BME280;11076;47.942;11.804;2023-06-22T02:19:24;94354.94;;;18.17;100.00
21828;BME280;11076;47.942;11.804;2023-06-22T02:24:27;94357.13;;;18.35;100.00
21828;BME280;11076;47.942;11.804;2023-06-22T02:29:33;94353.88;;;18.28;100.00
21828;BME280;11076;47.942;11.804;2023-06-22T02:34:37;94359.81;;;18.15;100.00
21828;BME280;11076;47.942;11.804;2023-06-22T02:39:39;94377.25;;;17.81;100.00
21828;BME280;11076;47.942;11.804;2023-06-22T02:44:42;94371.50;;;17.67;100.00
21828;BME280;11076;47.942;11.804;2023-06-22T02:49:45;94379.56;;;17.57;100.00
21828;BME280;11076;47.942;11.804;2023-06-22T02:54:48;94377.63;;;17.47;100.00
21828;BME280;11076;47.942;11.804;2023-06-22T02:59:51;94390.78;;;17.39;100.00
21828;BME280;11076;47.942;11.804;2023-06-22T03:04:53;94393.53;;;17.44;100.00
21828;BME280;11076;47.942;11.804;2023-06-22T03:09:56;94382.97;;;17.37;100.00
21828;BME280;11076;47.942;11.804;2023-06-22T03:14:58;94400.53;;;17.40;100.00
21828;BME280;11076;47.942;11.804;2023-06-22T03:20:04;94393.28;;;17.50;100.00
21828;BME280;11076;47.942;11.804;2023-06-22T03:25:11;94390.06;;;17.54;100.00
21828;BME280;11076;47.942;11.804;2023-06-22T03:30:17;94395.25;;;17.60;100.00
21828;BME280;11076;47.942;11.804;2023-06-22T03:35:20;94388.19;;;17.54;100.00
21828;BME280;11076;47.942;11.804;2023-06-22T03:40:23;94400.97;;;17.69;100.00
21828;BME280;11076;47.942;11.804;2023-06-22T03:45:25;94390.50;;;17.83;100.00
21828;BME280;11076;47.942;11.804;2023-06-22T03:50:28;94389.53;;;18.09;100.00
21828;BME280;11076;47.942;11.804;2023-06-22T03:55:33;94391.53;;;18.55;100.00
21828;BME280;11076;47.942;11.804;2023-06-22T04:00:36;94398.91;;;18.85;100.00
21828;BME280;11076;47.942;11.804;2023-06-22T04:05:39;94398.38;;;19.04;100.00
21828;BME280;11076;47.942;11.804;2023-06-22T04:10:42;94391.03;;;19.25;100.00
21828;BME280;11076;47.942;11.804;2023-06-22T04:15:44;94389.09;;;19.56;100.00
21828;BME280;11076;47.942;11.804;2023-06-22T04:20:47;94388.44;;;20.00;100.00
21828;BME280;11076;47.942;11.804;2023-06-22T04:25:49;94386.47;;;20.16;100.00
21828;BME280;11076;47.942;11.804;2023-06-22T04:30:53;94387.13;;;20.48;100.00
21828;BME280;11076;47.942;11.804;2023-06-22T04:36:00;94394.47;;;20.86;98.42
21828;BME280;11076;47.942;11.804;2023-06-22T04:41:03;94388.28;;;21.44;96.53
21828;BME280;11076;47.942;11.804;2023-06-22T04:46:05;94391.53;;;21.76;93.08
21828;BME280;11076;47.942;11.804;2023-06-22T04:51:08;94387.88;;;22.10;91.37
21828;BME280;11076;47.942;11.804;2023-06-22T04:56:10;94388.53;;;23.20;85.33
21828;BME280;11076;47.942;11.804;2023-06-22T05:01:14;94381.63;;;22.71;86.53
21828;BME280;11076;47.942;11.804;2023-06-22T05:06:16;94372.88;;;22.36;87.06
21828;BME280;11076;47.942;11.804;2023-06-22T05:11:19;94374.56;;;22.51;86.34
21828;BME280;11076;47.942;11.804;2023-06-22T05:16:22;94379.69;;;22.91;84.93
21828;BME280;11076;47.942;11.804;2023-06-22T05:21:28;94361.94;;;24.42;79.40
21828;BME280;11076;47.942;11.804;2023-06-22T05:26:32;94360.34;;;25.00;74.83
21828;BME280;11076;47.942;11.804;2023-06-22T05:31:35;94355.13;;;25.12;73.48
21828;BME280;11076;47.942;11.804;2023-06-22T05:36:37;94358.56;;;26.87;67.15
21828;BME280;11076;47.942;11.804;2023-06-22T05:41:40;94353.81;;;28.93;59.12
21828;BME280;11076;47.942;11.804;2023-06-22T05:46:43;94372.97;;;29.02;56.42
21828;BME280;11076;47.942;11.804;2023-06-22T05:51:46;94351.81;;;29.36;55.05
21828;BME280;11076;47.942;11.804;2023-06-22T05:56:49;94351.06;;;30.18;52.46
21828;BME280;11076;47.942;11.804;2023-06-22T06:01:51;94352.75;;;30.97;50.75
21828;BME280;11076;47.942;11.804;2023-06-22T06:06:53;94367.53;;;31.17;48.91
21828;BME280;11076;47.942;11.804;2023-06-22T06:11:56;94346.88;;;31.99;47.32
21828;BME280;11076;47.942;11.804;2023-06-22T06:16:58;94352.19;;;32.87;45.35
21828;BME280;11076;47.942;11.804;2023-06-22T06:22:01;94352.50;;;33.40;44.05
21828;BME280;11076;47.942;11.804;2023-06-22T06:27:03;94361.22;;;32.52;44.66
21828;BME280;11076;47.942;11.804;2023-06-22T06:32:07;94363.69;;;32.06;44.88
21828;BME280;11076;47.942;11.804;2023-06-22T06:37:10;94365.22;;;29.25;51.51
21828;BME280;11076;47.942;11.804;2023-06-22T06:42:12;94345.66;;;27.95;56.05
21828;BME280;11076;47.942;11.804;2023-06-22T06:47:15;94346.44;;;27.40;57.80
21828;BME280;11076;47.942;11.804;2023-06-22T06:52:19;94341.13;;;26.91;58.58
21828;BME280;11076;47.942;11.804;2023-06-22T06:57:22;94339.66;;;26.50;60.87
21828;BME280;11076;47.942;11.804;2023-06-22T07:02:25;94346.41;;;26.53;60.50
21828;BME280;11076;47.942;11.804;2023-06-22T07:07:30;94347.41;;;26.57;60.72
21828;BME280;11076;47.942;11.804;2023-06-22T07:12:32;94341.31;;;26.86;60.69
21828;BME280;11076;47.942;11.804;2023-06-22T07:17:35;94354.19;;;26.86;60.40
21828;BME280;11076;47.942;11.804;2023-06-22T07:22:43;94339.72;;;26.94;60.81
21828;BME280;11076;47.942;11.804;2023-06-22T07:28:01;94340.81;;;27.10;60.42
21828;BME280;11076;47.942;11.804;2023-06-22T07:33:04;94336.31;;;26.79;61.69
21828;BME280;11076;47.942;11.804;2023-06-22T07:38:10;94335.34;;;26.75;62.18
21828;BME280;11076;47.942;11.804;2023-06-22T07:43:12;94329.09;;;27.66;60.76
21828;BME280;11076;47.942;11.804;2023-06-22T07:48:15;94314.06;;;27.72;59.25
21828;BME280;11076;47.942;11.804;2023-06-22T07:53:17;94319.66;;;27.84;58.83
21828;BME280;11076;47.942;11.804;2023-06-22T07:58:19;94329.00;;;27.83;58.58
21828;BME280;11076;47.942;11.804;2023-06-22T08:03:22;94331.31;;;28.20;58.46
21828;BME280;11076;47.942;11.804;2023-06-22T08:08:25;94328.56;;;28.41;58.01
21828;BME280;11076;47.942;11.804;2023-06-22T08:13:27;94325.66;;;28.46;58.62
21828;BME280;11076;47.942;11.804;2023-06-22T08:18:30;94323.53;;;28.72;57.88
21828;BME280;11076;47.942;11.804;2023-06-22T08:23:32;94319.38;;;28.36;58.04
21828;BME280;11076;47.942;11.804;2023-06-22T08:28:35;94329.66;;;28.78;56.21
21828;BME280;11076;47.942;11.804;2023-06-22T08:33:37;94322.78;;;29.05;55.65
21828;BME280;11076;47.942;11.804;2023-06-22T08:38:49;94314.44;;;29.35;55.57
21828;BME280;11076;47.942;11.804;2023-06-22T08:43:53;94323.09;;;29.58;54.16
21828;BME280;11076;47.942;11.804;2023-06-22T08:48:56;94319.16;;;30.17;52.67
21828;BME280;11076;47.942;11.804;2023-06-22T08:54:02;94314.66;;;30.49;53.23
21828;BME280;11076;47.942;11.804;2023-06-22T08:59:04;94317.75;;;30.48;52.64
21828;BME280;11076;47.942;11.804;2023-06-22T09:04:10;94313.72;;;30.58;51.88
21828;BME280;11076;47.942;11.804;2023-06-22T09:09:13;94320.91;;;30.87;52.38
21828;BME280;11076;47.942;11.804;2023-06-22T09:14:16;94309.91;;;31.15;51.27
21828;BME280;11076;47.942;11.804;2023-06-22T09:19:19;94305.16;;;31.28;51.11
21828;BME280;11076;47.942;11.804;2023-06-22T09:24:21;94299.34;;;31.33;50.53
21828;BME280;11076;47.942;11.804;2023-06-22T09:29:24;94299.81;;;31.35;48.96
21828;BME280;11076;47.942;11.804;2023-06-22T09:34:27;94294.88;;;31.57;48.82
21828;BME280;11076;47.942;11.804;2023-06-22T09:39:29;94290.78;;;31.50;48.76
21828;BME280;11076;47.942;11.804;2023-06-22T09:44:32;94298.03;;;31.43;48.32
21828;BME280;11076;47.942;11.804;2023-06-22T09:49:34;94297.94;;;31.39;48.67
21828;BME280;11076;47.942;11.804;2023-06-22T09:54:43;94294.72;;;31.37;48.18
21828;BME280;11076;47.942;11.804;2023-06-22T09:59:45;94286.56;;;31.12;48.30
21828;BME280;11076;47.942;11.804;2023-06-22T10:04:48;94279.19;;;31.45;47.86
21828;BME280;11076;47.942;11.804;2023-06-22T10:09:51;94276.44;;;31.61;48.24
21828;BME280;11076;47.942;11.804;2023-06-22T10:14:53;94273.06;;;31.51;49.01
21828;BME280;11076;47.942;11.804;2023-06-22T10:19:56;94280.72;;;31.74;48.81
21828;BME280;11076;47.942;11.804;2023-06-22T10:24:58;94258.88;;;31.85;48.99
21828;BME280;11076;47.942;11.804;2023-06-22T10:30:01;94249.59;;;31.77;48.30
21828;BME280;11076;47.942;11.804;2023-06-22T10:35:04;94258.88;;;31.69;48.07
21828;BME280;11076;47.942;11.804;2023-06-22T10:40:07;94248.28;;;32.03;47.21
21828;BME280;11076;47.942;11.804;2023-06-22T10:45:11;94247.66;;;32.09;45.92
21828;BME280;11076;47.942;11.804;2023-06-22T10:50:13;94239.22;;;32.38;46.13
21828;BME280;11076;47.942;11.804;2023-06-22T10:55:16;94241.00;;;32.30;45.84
21828;BME280;11076;47.942;11.804;2023-06-22T11:00:18;94245.59;;;32.58;44.66
21828;BME280;11076;47.942;11.804;2023-06-22T11:05:21;94236.63;;;32.64;45.78
21828;BME280;11076;47.942;11.804;2023-06-22T11:10:23;94224.19;;;32.94;43.75
21828;BME280;11076;47.942;11.804;2023-06-22T11:15:26;94217.69;;;33.05;43.94
21828;BME280;11076;47.942;11.804;2023-06-22T11:20:28;94221.63;;;33.24;43.50
21828;BME280;11076;47.942;11.804;2023-06-22T11:25:30;94225.03;;;33.37;43.46
21828;BME280;11076;47.942;11.804;2023-06-22T11:30:33;94227.41;;;33.38;43.00
21828;BME280;11076;47.942;11.804;2023-06-22T11:35:36;94218.81;;;33.43;42.67
21828;BME280;11076;47.942;11.804;2023-06-22T11:40:38;94219.63;;;33.67;42.91
21828;BME280;11076;47.942;11.804;2023-06-22T11:45:41;94212.97;;;34.21;42.41
21828;BME280;11076;47.942;11.804;2023-06-22T11:50:43;94198.63;;;34.46;42.28
21828;BME280;11076;47.942;11.804;2023-06-22T11:55:45;94200.25;;;34.47;41.76
21828;BME280;11076;47.942;11.804;2023-06-22T12:00:48;94183.13;;;35.05;41.50
21828;BME280;11076;47.942;11.804;2023-06-22T12:05:52;94180.34;;;35.05;40.54
21828;BME280;11076;47.942;11.804;2023-06-22T12:10:54;94177.16;;;34.70;40.48
21828;BME280;11076;47.942;11.804;2023-06-22T12:15:57;94170.50;;;34.78;40.06
21828;BME280;11076;47.942;11.804;2023-06-22T12:20:59;94159.13;;;34.86;40.55
21828;BME280;11076;47.942;11.804;2023-06-22T12:26:02;94149.16;;;35.16;40.97
21828;BME280;11076;47.942;11.804;2023-06-22T12:31:04;94157.03;;;35.55;40.35
21828;BME280;11076;47.942;11.804;2023-06-22T12:36:06;94147.38;;;35.41;39.54
21828;BME280;11076;47.942;11.804;2023-06-22T12:41:09;94150.25;;;35.52;38.00
21828;BME280;11076;47.942;11.804;2023-06-22T12:46:11;94146.09;;;35.28;38.75
21828;BME280;11076;47.942;11.804;2023-06-22T12:51:20;94133.28;;;34.49;39.53
21828;BME280;11076;47.942;11.804;2023-06-22T12:56:22;94131.13;;;34.35;40.55
21828;BME280;11076;47.942;11.804;2023-06-22T13:01:25;94122.47;;;34.74;40.45
21828;BME280;11076;47.942;11.804;2023-06-22T13:06:27;94134.88;;;35.17;39.32
21828;BME280;11076;47.942;11.804;2023-06-22T13:11:29;94132.31;;;35.91;38.35
21828;BME280;11076;47.942;11.804;2023-06-22T13:16:32;94129.84;;;35.78;37.63
21828;BME280;11076;47.942;11.804;2023-06-22T13:21:34;94114.63;;;36.20;37.89
21828;BME280;11076;47.942;11.804;2023-06-22T13:26:37;94122.00;;;35.95;37.82
21828;BME280;11076;47.942;11.804;2023-06-22T13:31:39;94126.16;;;35.19;38.19
21828;BME280;11076;47.942;11.804;2023-06-22T13:36:41;94120.34;;;34.97;38.92
21828;BME280;11076;47.942;11.804;2023-06-22T13:41:44;94103.41;;;34.69;38.51
21828;BME280;11076;47.942;11.804;2023-06-22T13:46:46;94097.47;;;35.11;39.05
21828;BME280;11076;47.942;11.804;2023-06-22T13:51:49;94096.28;;;35.57;37.89
21828;BME280;11076;47.942;11.804;2023-06-22T13:56:51;94102.19;;;36.03;36.81
21828;BME280;11076;47.942;11.804;2023-06-22T14:01:54;94105.19;;;36.39;35.97
21828;BME280;11076;47.942;11.804;2023-06-22T14:06:56;94095.22;;;36.31;35.82
21828;BME280;11076;47.942;11.804;2023-06-22T14:12:05;94084.69;;;36.03;35.99
21828;BME280;11076;47.942;11.804;2023-06-22T14:17:08;94069.22;;;35.47;35.89
21828;BME280;11076;47.942;11.804;2023-06-22T14:22:10;94064.00;;;35.41;36.13
21828;BME280;11076;47.942;11.804;2023-06-22T14:27:12;94070.94;;;35.14;36.31
21828;BME280;11076;47.942;11.804;2023-06-22T14:32:15;94061.13;;;35.27;36.88
21828;BME280;11076;47.942;11.804;2023-06-22T14:37:17;94060.56;;;34.66;37.08
21828;BME280;11076;47.942;11.804;2023-06-22T14:42:20;94041.06;;;35.03;36.05
21828;BME280;11076;47.942;11.804;2023-06-22T14:47:23;94046.00;;;35.21;36.59
21828;BME280;11076;47.942;11.804;2023-06-22T14:52:26;94045.88;;;35.06;35.97
21828;BME280;11076;47.942;11.804;2023-06-22T14:57:29;94038.09;;;35.23;34.54
21828;BME280;11076;47.942;11.804;2023-06-22T15:02:32;94030.03;;;35.11;35.50
21828;BME280;11076;47.942;11.804;2023-06-22T15:07:34;94025.97;;;35.01;36.09
21828;BME280;11076;47.942;11.804;2023-06-22T15:12:36;94017.72;;;35.12;36.58
21828;BME280;11076;47.942;11.804;2023-06-22T15:17:39;94019.91;;;34.47;37.28
21828;BME280;11076;47.942;11.804;2023-06-22T15:22:41;94013.19;;;34.48;37.51
21828;BME280;11076;47.942;11.804;2023-06-22T15:27:44;94012.81;;;34.53;37.36
21828;BME280;11076;47.942;11.804;2023-06-22T15:32:46;93999.69;;;34.88;37.57
21828;BME280;11076;47.942;11.804;2023-06-22T15:37:49;93985.19;;;34.64;37.58
21828;BME280;11076;47.942;11.804;2023-06-22T15:42:53;93978.91;;;34.67;37.39
21828;BME280;11076;47.942;11.804;2023-06-22T15:47:56;93983.28;;;34.72;38.03
21828;BME280;11076;47.942;11.804;2023-06-22T15:52:58;93968.56;;;34.67;38.20
21828;BME280;11076;47.942;11.804;2023-06-22T15:58:00;93964.28;;;34.33;38.50
21828;BME280;11076;47.942;11.804;2023-06-22T16:03:03;93961.97;;;34.38;39.53
21828;BME280;11076;47.942;11.804;2023-06-22T16:08:10;93959.41;;;34.22;39.95
21828;BME280;11076;47.942;11.804;2023-06-22T16:13:13;93952.91;;;34.11;40.16
21828;BME280;11076;47.942;11.804;2023-06-22T16:18:17;93955.44;;;33.90;40.97
21828;BME280;11076;47.942;11.804;2023-06-22T16:23:20;93940.88;;;33.36;42.16
21828;BME280;11076;47.942;11.804;2023-06-22T16:28:22;93945.63;;;32.59;43.43
21828;BME280;11076;47.942;11.804;2023-06-22T16:33:25;93934.78;;;32.04;45.04
21828;BME280;11076;47.942;11.804;2023-06-22T16:38:27;93916.44;;;31.57;45.71
21828;BME280;11076;47.942;11.804;2023-06-22T16:43:32;93871.88;;;31.39;46.14
21828;BME280;11076;47.942;11.804;2023-06-22T16:48:36;93779.09;;;31.15;47.60
21828;BME280;11076;47.942;11.804;2023-06-22T16:53:38;93814.38;;;30.50;50.02
21828;BME280;11076;47.942;11.804;2023-06-22T16:58:41;93881.28;;;30.31;50.62
21828;BME280;11076;47.942;11.804;2023-06-22T17:03:59;93914.94;;;30.09;51.00
21828;BME280;11076;47.942;11.804;2023-06-22T17:09:04;93929.63;;;30.13;49.95
21828;BME280;11076;47.942;11.804;2023-06-22T17:14:07;93893.16;;;30.04;50.33
21828;BME280;11076;47.942;11.804;2023-06-22T17:19:10;93865.94;;;29.86;51.06
21828;BME280;11076;47.942;11.804;2023-06-22T17:24:16;93947.09;;;29.48;52.47
21828;BME280;11076;47.942;11.804;2023-06-22T18:48:28;94061.97;;;21.25;100.00
21828;BME280;11076;47.942;11.804;2023-06-22T18:53:31;94067.66;;;21.48;100.00
21828;BME280;11076;47.942;11.804;2023-06-22T18:58:33;94062.72;;;21.50;99.37
21828;BME280;11076;47.942;11.804;2023-06-22T19:03:36;94076.47;;;21.59;98.44
21828;BME280;11076;47.942;11.804;2023-06-22T19:09:14;94071.91;;;21.73;95.47
21828;BME280;11076;47.942;11.804;2023-06-22T19:14:21;94086.66;;;21.86;93.36
21828;BME280;11076;47.942;11.804;2023-06-22T19:19:23;94083.69;;;21.82;92.76
21828;BME280;11076;47.942;11.804;2023-06-22T19:24:30;94071.44;;;21.85;92.37
21828;BME280;11076;47.942;11.804;2023-06-22T19:29:33;94083.50;;;21.79;92.59
21828;BME280;11076;47.942;11.804;2023-06-22T19:34:41;94089.88;;;21.88;91.90
21828;BME280;11076;47.942;11.804;2023-06-22T19:39:47;94092.19;;;21.81;93.46
21828;BME280;11076;47.942;11.804;2023-06-22T19:44:50;94102.28;;;21.94;92.79
21828;BME280;11076;47.942;11.804;2023-06-22T19:49:59;94122.13;;;22.14;91.30
21828;BME280;11076;47.942;11.804;2023-06-22T19:55:02;94131.31;;;22.18;89.96
21828;BME280;11076;47.942;11.804;2023-06-22T20:00:07;94139.94;;;22.25;88.46
21828;BME280;11076;47.942;11.804;2023-06-22T20:05:20;94120.19;;;22.33;86.59
21828;BME280;11076;47.942;11.804;2023-06-22T20:10:22;94134.34;;;22.49;85.05
21828;BME280;11076;47.942;11.804;2023-06-22T20:15:26;94129.34;;;22.56;85.02
21828;BME280;11076;47.942;11.804;2023-06-22T20:20:30;94127.91;;;22.59;84.81
21828;BME280;11076;47.942;11.804;2023-06-22T20:25:36;94113.16;;;22.46;85.35
21828;BME280;11076;47.942;11.804;2023-06-22T20:30:41;94101.72;;;22.30;85.92
21828;BME280;11076;47.942;11.804;2023-06-22T20:35:44;94117.19;;;22.16;88.07
21828;BME280;11076;47.942;11.804;2023-06-22T20:40:52;94136.88;;;21.94;90.31
21828;BME280;11076;47.942;11.804;2023-06-22T20:45:55;94143.78;;;21.86;91.40
21828;BME280;11076;47.942;11.804;2023-06-22T20:50:57;94158.66;;;21.75;93.11
21828;BME280;11076;47.942;11.804;2023-06-22T20:55:59;94175.56;;;21.72;93.67
21828;BME280;11076;47.942;11.804;2023-06-22T21:01:02;94197.59;;;21.70;95.15
21828;BME280;11076;47.942;11.804;2023-06-22T21:06:05;94187.63;;;21.65;96.03
21828;BME280;11076;47.942;11.804;2023-06-22T21:11:07;94189.31;;;21.61;96.27
21828;BME280;11076;47.942;11.804;2023-06-22T21:16:10;94200.13;;;21.67;96.17
21828;BME280;11076;47.942;11.804;2023-06-22T21:21:12;94186.13;;;21.54;97.46
21828;BME280;11076;47.942;11.804;2023-06-22T21:26:14;94174.00;;;21.47;95.23
21828;BME280;11076;47.942;11.804;2023-06-22T21:31:17;94220.16;;;21.03;96.43
21828;BME280;11076;47.942;11.804;2023-06-22T21:36:20;94260.81;;;20.84;98.08
21828;BME280;11076;47.942;11.804;2023-06-22T21:41:22;94288.09;;;20.74;98.92
21828;BME280;11076;47.942;11.804;2023-06-22T21:46:25;94268.13;;;20.60;100.00
21828;BME280;11076;47.942;11.804;2023-06-22T21:51:27;94263.22;;;20.57;100.00
21828;BME280;11076;47.942;11.804;2023-06-22T21:56:30;94288.25;;;20.49;99.90
